Time;durP1;ratioP1;P1;durP2;ratioP2;P2;SDS_P1;SDS_P2;PMS_P1;PMS_P2;Temp;Humidity;BMP_temperature;BMP_pressure;BME280_temperature;BME280_humidity;BME280_pressure;Samples;Min_cycle;Max_cycle;Signal;HPM_P1;HPM_P2
2022/10/30 00:02:24;;;;;;;5.03;2.00;;;;;;;14.10;100.00;99548.99;1746895;80;21060;-51
2022/10/30 00:04:50;;;;;;;4.30;2.30;;;;;;;14.08;100.00;99546.38;1751363;80;21510;-51
2022/10/30 00:07:17;;;;;;;5.07;2.50;;;;;;;14.06;100.00;99541.55;1746802;80;21079;-51
2022/10/30 00:09:45;;;;;;;4.65;1.95;;;;;;;14.06;100.00;99536.13;1741945;80;21816;-51
2022/10/30 00:12:11;;;;;;;5.90;1.90;;;;;;;14.06;100.00;99539.32;1741806;80;21088;-50
2022/10/30 00:14:38;;;;;;;7.28;2.42;;;;;;;14.04;100.00;99532.65;1741393;80;21005;-51
2022/10/30 00:17:05;;;;;;;7.25;2.10;;;;;;;14.04;100.00;99552.95;1737199;80;21083;-51
2022/10/30 00:19:31;;;;;;;6.30;2.70;;;;;;;14.01;100.00;99552.69;1739478;80;21063;-51
2022/10/30 00:22:01;;;;;;;6.30;3.12;;;;;;;14.02;100.00;99548.14;1740491;80;21503;-51
2022/10/30 00:24:28;;;;;;;5.85;2.25;;;;;;;14.00;100.00;99555.48;1731392;80;21545;-51
2022/10/30 00:26:54;;;;;;;7.12;2.10;;;;;;;13.99;100.00;99560.03;1736808;80;21064;-51
2022/10/30 00:29:25;;;;;;;5.30;1.87;;;;;;;13.98;100.00;99562.34;1737436;80;21025;-51
2022/10/30 00:31:52;;;;;;;5.87;1.70;;;;;;;13.97;100.00;99567.37;1741409;80;21116;-51
2022/10/30 00:34:18;;;;;;;5.35;1.90;;;;;;;13.95;100.00;99565.23;1735400;80;21803;-51
2022/10/30 00:36:45;;;;;;;7.12;1.90;;;;;;;13.93;100.00;99565.84;1736722;80;21049;-51
2022/10/30 00:39:12;;;;;;;4.58;2.45;;;;;;;13.92;100.00;99568.64;1740511;80;21038;-51
2022/10/30 00:41:40;;;;;;;3.77;1.72;;;;;;;13.90;100.00;99561.98;1736535;80;21049;-51
2022/10/30 00:44:36;;;;;;;7.28;1.85;;;;;;;13.89;100.00;99556.66;1739319;80;21095;-51
2022/10/30 00:47:06;;;;;;;4.10;1.90;;;;;;;13.88;100.00;99549.50;1735513;80;21824;-51
2022/10/30 00:49:35;;;;;;;5.70;1.98;;;;;;;13.88;100.00;99546.32;1740472;80;21065;-50
2022/10/30 00:52:04;;;;;;;6.67;2.05;;;;;;;13.88;100.00;99548.16;1734121;80;21085;-49
2022/10/30 00:54:31;;;;;;;3.45;1.92;;;;;;;13.85;100.00;99539.78;1734145;80;21524;-50
2022/10/30 00:57:00;;;;;;;5.53;1.98;;;;;;;13.84;100.00;99533.98;1737749;80;21692;-49
2022/10/30 00:59:29;;;;;;;10.98;2.45;;;;;;;13.83;100.00;99529.53;1736970;80;22457;-50
2022/10/30 01:01:55;;;;;;;2.45;1.82;;;;;;;13.83;100.00;99551.17;1735974;80;21052;-50
2022/10/30 01:05:33;;;;;;;3.20;2.17;;;;;;;13.79;100.00;99532.03;1788479;78;28232;-50
2022/10/30 01:08:01;;;;;;;4.33;2.12;;;;;;;13.79;100.00;99552.80;1770468;78;21019;-49
2022/10/30 01:10:28;;;;;;;5.08;2.52;;;;;;;13.77;100.00;99546.17;1772891;79;21292;-49
2022/10/30 01:12:54;;;;;;;5.67;1.82;;;;;;;13.76;100.00;99548.97;1768651;79;21045;-49
2022/10/30 01:15:28;;;;;;;5.28;1.57;;;;;;;13.74;100.00;99548.19;1769046;79;21106;-49
2022/10/30 01:18:16;;;;;;;4.37;2.05;;;;;;;13.72;100.00;99549.63;1750844;80;21554;-50
2022/10/30 01:21:10;;;;;;;4.67;1.85;;;;;;;13.72;100.00;99560.94;1768590;79;21029;-50
2022/10/30 01:24:13;;;;;;;4.03;2.07;;;;;;;13.69;100.00;99553.03;1769039;79;22172;-51
2022/10/30 01:26:51;;;;;;;1.50;1.40;;;;;;;13.66;100.00;99543.75;1764164;78;21016;-50
2022/10/30 01:29:40;;;;;;;6.28;1.87;;;;;;;13.63;100.00;99537.56;1770235;79;21060;-51
2022/10/30 01:32:19;;;;;;;1.52;1.42;;;;;;;13.61;100.00;99521.91;1776978;79;21025;-50
2022/10/30 01:35:08;;;;;;;6.05;1.42;;;;;;;13.62;100.00;99533.12;1774417;78;21068;-50
2022/10/30 01:38:04;;;;;;;1.70;1.15;;;;;;;13.63;100.00;99525.88;1770494;79;21838;-51
2022/10/30 01:40:32;;;;;;;6.53;1.52;;;;;;;13.65;100.00;99511.78;1771790;79;21069;-51
2022/10/30 01:42:59;;;;;;;5.83;1.40;;;;;;;13.67;100.00;99508.98;1771157;79;21059;-51
2022/10/30 01:45:53;;;;;;;3.72;1.50;;;;;;;13.69;100.00;99509.77;1775549;79;21069;-51
2022/10/30 01:48:46;;;;;;;6.12;1.45;;;;;;;13.72;100.00;99521.71;1770659;79;21013;-51
2022/10/30 01:51:27;;;;;;;5.85;1.10;;;;;;;13.71;100.00;99531.66;1763700;79;21844;-50
2022/10/30 01:54:29;;;;;;;7.03;1.80;;;;;;;13.72;100.00;99536.11;1778960;78;21589;-50
2022/10/30 01:57:22;;;;;;;5.45;1.57;;;;;;;13.72;100.00;99546.06;1768123;79;21056;-51
2022/10/30 02:00:00;;;;;;;1.75;1.55;;;;;;;13.72;100.00;99540.65;1749359;80;21073;-51
2022/10/30 02:02:27;;;;;;;6.87;1.82;;;;;;;13.68;100.00;99534.58;1754760;80;21038;-50
2022/10/30 02:04:55;;;;;;;11.63;1.25;;;;;;;13.66;100.00;99532.94;1740049;80;21093;-51
2022/10/30 02:07:22;;;;;;;12.63;1.62;;;;;;;13.63;100.00;99544.33;1736004;81;21137;-54
2022/10/30 02:09:53;;;;;;;7.55;2.00;;;;;;;13.62;100.00;99539.88;1734642;80;21126;-51
2022/10/30 02:12:20;;;;;;;5.58;1.67;;;;;;;13.61;100.00;99534.56;1732849;80;21166;-49
2022/10/30 02:14:51;;;;;;;5.17;1.50;;;;;;;13.59;100.00;99539.23;1733696;80;21049;-49
2022/10/30 02:17:18;;;;;;;4.47;2.10;;;;;;;13.57;100.00;99528.50;1734014;80;21802;-50
2022/10/30 02:19:44;;;;;;;5.92;1.70;;;;;;;13.56;100.00;99524.06;1731375;81;21013;-50
2022/10/30 02:22:10;;;;;;;2.70;1.30;;;;;;;13.57;100.00;99538.45;1696305;83;21089;-51
2022/10/30 02:24:37;;;;;;;4.83;1.50;;;;;;;13.56;100.00;99541.64;1738340;80;21554;-50
2022/10/30 02:27:04;;;;;;;2.72;1.22;;;;;;;13.56;100.00;99556.51;1732909;82;21091;-51
2022/10/30 02:29:31;;;;;;;2.22;1.25;;;;;;;13.57;100.00;99552.84;1730910;82;23703;-50
2022/10/30 02:31:58;;;;;;;6.03;1.45;;;;;;;13.55;100.00;99545.30;1732037;80;21562;-50
2022/10/30 02:34:24;;;;;;;3.42;1.82;;;;;;;13.54;100.00;99535.45;1736617;80;21015;-50
2022/10/30 02:36:51;;;;;;;4.78;1.30;;;;;;;13.52;100.00;99547.35;1731532;80;21051;-50
2022/10/30 02:39:20;;;;;;;4.70;1.40;;;;;;;13.51;100.00;99550.53;1741549;80;21132;-50
2022/10/30 02:41:47;;;;;;;9.25;1.60;;;;;;;13.51;100.00;99553.72;1735485;80;21858;-50
2022/10/30 02:44:13;;;;;;;3.70;1.42;;;;;;;13.49;100.00;99565.98;1667782;83;21117;-50
2022/10/30 02:46:41;;;;;;;2.60;1.30;;;;;;;13.48;100.00;99569.64;1733109;80;21145;-49
2022/10/30 02:49:07;;;;;;;2.98;1.60;;;;;;;13.47;100.00;99579.20;1738431;80;21507;-51
2022/10/30 02:51:34;;;;;;;6.62;1.32;;;;;;;13.46;100.00;99570.22;1736420;82;21081;-51
2022/10/30 02:54:00;;;;;;;3.05;1.07;;;;;;;13.43;100.00;99565.03;1737269;80;23734;-50
2022/10/30 02:56:27;;;;;;;4.42;1.07;;;;;;;13.43;100.00;99572.27;1728370;80;21721;-50
2022/10/30 02:58:55;;;;;;;5.72;1.17;;;;;;;13.42;100.00;99563.77;1732346;82;21061;-50
2022/10/30 03:01:22;;;;;;;3.55;1.15;;;;;;;13.41;100.00;99565.59;1734102;82;21089;-50
2022/10/30 03:03:50;;;;;;;2.20;1.15;;;;;;;13.39;100.00;99574.76;1734810;80;21537;-50
2022/10/30 03:06:17;;;;;;;5.25;1.30;;;;;;;13.39;100.00;99570.70;1734960;82;21840;-50
2022/10/30 03:08:43;;;;;;;4.45;1.10;;;;;;;13.37;100.00;99564.52;1734293;82;21106;-50
2022/10/30 03:11:14;;;;;;;5.42;1.20;;;;;;;13.35;100.00;99562.41;1735122;81;21208;-50
2022/10/30 03:13:42;;;;;;;4.95;1.67;;;;;;;13.34;100.00;99570.13;1730461;80;21027;-50
2022/10/30 03:16:23;;;;;;;2.77;1.57;;;;;;;13.32;100.00;99562.59;1735527;82;21120;-49
2022/10/30 03:18:51;;;;;;;3.20;1.12;;;;;;;13.29;100.00;99563.64;1732679;82;21045;-50
2022/10/30 03:21:20;;;;;;;2.08;1.15;;;;;;;13.29;100.00;99560.07;1732613;80;21073;-50
2022/10/30 03:23:49;;;;;;;1.67;1.30;;;;;;;13.26;100.00;99550.34;1732727;82;21104;-50
2022/10/30 03:26:16;;;;;;;4.75;1.45;;;;;;;13.25;100.00;99545.89;1721335;82;21547;-50
2022/10/30 03:28:45;;;;;;;4.25;1.30;;;;;;;13.24;100.00;99549.56;1732347;82;21146;-50
2022/10/30 03:31:14;;;;;;;2.98;1.25;;;;;;;13.23;100.00;99553.22;1732976;80;21882;-50
2022/10/30 03:33:41;;;;;;;2.90;1.17;;;;;;;13.20;100.00;99548.87;1734047;82;21071;-50
2022/10/30 03:36:09;;;;;;;3.00;1.57;;;;;;;13.19;100.00;99550.31;1695544;82;21069;-51
2022/10/30 03:38:36;;;;;;;3.27;1.32;;;;;;;13.18;100.00;99554.00;1728634;80;21053;-50
2022/10/30 03:41:03;;;;;;;5.00;1.45;;;;;;;13.15;100.00;99559.59;1733576;82;21031;-50
2022/10/30 03:43:30;;;;;;;2.33;1.20;;;;;;;13.14;100.00;99559.20;1736298;82;21843;-49
2022/10/30 03:45:56;;;;;;;2.30;1.05;;;;;;;13.14;100.00;99560.55;1738654;80;21471;-49
2022/10/30 03:48:26;;;;;;;3.50;1.00;;;;;;;13.12;100.00;99552.50;1732860;80;21562;-49
2022/10/30 03:53:32;;;;;;;5.53;1.20;;;;;;;13.15;100.00;99554.18;1872953;75;25669;-49
2022/10/30 03:56:01;;;;;;;2.37;1.20;;;;;;;13.14;100.00;99567.30;1827833;77;21009;-49
2022/10/30 03:58:30;;;;;;;2.65;1.65;;;;;;;13.12;100.00;99576.81;1812354;77;21414;-49
2022/10/30 04:01:04;;;;;;;4.22;1.25;;;;;;;13.11;100.00;99572.85;1779175;77;21047;-49
2022/10/30 04:03:33;;;;;;;8.68;1.75;;;;;;;13.09;100.00;99578.38;1813908;77;21064;-48
2022/10/30 04:06:00;;;;;;;2.83;1.20;;;;;;;13.10;100.00;99575.20;1810651;77;21116;-48
2022/10/30 04:08:28;;;;;;;5.35;1.22;;;;;;;13.10;100.00;99576.03;1801749;77;21542;-48
2022/10/30 04:10:56;;;;;;;3.08;1.00;;;;;;;13.12;100.00;99571.89;1808699;77;21784;-48
2022/10/30 04:13:24;;;;;;;2.90;1.37;;;;;;;13.12;100.00;99573.24;1801007;77;21478;-49
2022/10/30 04:15:52;;;;;;;4.60;1.02;;;;;;;13.14;100.00;99579.47;1806960;77;21059;-49
2022/10/30 04:18:20;;;;;;;2.55;1.10;;;;;;;13.14;100.00;99571.36;1803998;77;21175;-48
2022/10/30 04:20:48;;;;;;;1.60;1.00;;;;;;;13.15;100.00;99579.86;1807109;77;21039;-49
2022/10/30 04:23:17;;;;;;;4.22;1.10;;;;;;;13.15;100.00;99584.78;1810461;77;21808;-48
2022/10/30 04:25:43;;;;;;;6.00;0.85;;;;;;;13.15;100.00;99582.08;1811752;77;21553;-48
2022/10/30 04:28:11;;;;;;;6.22;0.98;;;;;;;13.14;100.00;99570.88;1769624;78;21043;-47
2022/10/30 04:30:39;;;;;;;5.45;1.20;;;;;;;13.14;100.00;99571.36;1804050;77;21006;-48
2022/10/30 04:33:08;;;;;;;3.22;1.05;;;;;;;13.14;100.00;99568.66;1813585;77;21102;-48
2022/10/30 04:35:37;;;;;;;2.12;1.02;;;;;;;13.13;100.00;99565.53;1809655;77;21073;-48
2022/10/30 04:38:13;;;;;;;1.37;0.90;;;;;;;13.13;100.00;99573.19;1803749;77;21051;-48
2022/10/30 04:40:42;;;;;;;3.92;1.20;;;;;;;13.13;100.00;99570.48;1810713;77;21024;-49
2022/10/30 04:43:10;;;;;;;2.77;0.98;;;;;;;13.15;100.00;99587.96;1806468;78;21074;-48
2022/10/30 04:45:37;;;;;;;9.45;1.40;;;;;;;13.16;100.00;99587.00;1808889;77;21519;-48
2022/10/30 04:48:13;;;;;;;2.80;0.90;;;;;;;13.14;100.00;99578.98;1804198;77;21929;-49
2022/10/30 04:50:42;;;;;;;2.98;0.90;;;;;;;13.13;100.00;99591.20;1807349;77;21043;-51
2022/10/30 04:53:13;;;;;;;2.70;0.93;;;;;;;13.10;100.00;99594.95;1808641;77;21548;-49
2022/10/30 04:55:41;;;;;;;2.45;0.80;;;;;;;13.07;100.00;99591.58;1805849;77;21565;-50
2022/10/30 04:58:08;;;;;;;2.50;0.75;;;;;;;13.04;100.00;99593.98;1768577;80;21046;-50
2022/10/30 05:00:37;;;;;;;5.50;1.00;;;;;;;13.01;100.00;99602.77;1821985;77;21821;-49
2022/10/30 05:03:22;;;;;;;2.65;0.75;;;;;;;12.99;100.00;99602.86;1804123;77;21012;-49
2022/10/30 05:06:01;;;;;;;2.27;0.72;;;;;;;12.97;100.00;99602.08;1811759;77;21047;-49
2022/10/30 05:08:27;;;;;;;5.55;0.90;;;;;;;12.97;100.00;99601.20;1809316;77;21466;-50
2022/10/30 05:10:54;;;;;;;2.12;1.00;;;;;;;12.97;100.00;99606.13;1801117;77;21046;-50
2022/10/30 05:13:21;;;;;;;5.90;0.80;;;;;;;12.98;100.00;99602.47;1781461;77;21820;-49
2022/10/30 05:15:49;;;;;;;2.00;0.82;;;;;;;12.98;100.00;99612.41;1805674;77;20989;-50
2022/10/30 05:18:16;;;;;;;5.45;0.80;;;;;;;12.98;100.00;99613.75;1812171;77;21542;-50
2022/10/30 05:20:45;;;;;;;1.95;0.62;;;;;;;12.94;100.00;99610.35;1808322;77;21073;-50
2022/10/30 05:23:13;;;;;;;3.55;0.70;;;;;;;12.93;100.00;99603.72;1776083;78;21488;-49
2022/10/30 05:25:40;;;;;;;3.90;0.70;;;;;;;12.91;100.00;99625.89;1814051;77;21805;-49
2022/10/30 05:28:08;;;;;;;1.07;0.65;;;;;;;12.88;100.00;99621.06;1766469;79;21608;-49
2022/10/30 05:30:37;;;;;;;1.60;0.70;;;;;;;12.88;100.00;99627.81;1770829;80;21437;-49
2022/10/30 05:33:08;;;;;;;2.40;0.60;;;;;;;12.89;100.00;99627.33;1815683;77;21097;-50
2022/10/30 05:35:35;;;;;;;1.47;0.70;;;;;;;12.92;100.00;99622.23;1805785;77;21070;-49
2022/10/30 05:38:04;;;;;;;2.87;0.80;;;;;;;12.95;100.00;99634.19;1805992;77;23039;-50
2022/10/30 05:40:32;;;;;;;3.33;0.88;;;;;;;12.97;100.00;99634.50;1806788;77;21042;-49
2022/10/30 05:42:58;;;;;;;6.83;0.80;;;;;;;13.00;100.00;99641.56;1808231;77;21474;-49
2022/10/30 05:45:25;;;;;;;2.45;0.90;;;;;;;13.02;100.00;99640.96;1805851;77;21106;-49
2022/10/30 05:48:00;;;;;;;3.15;0.72;;;;;;;13.02;100.00;99642.31;1773467;80;21055;-49
2022/10/30 05:50:29;;;;;;;2.17;0.90;;;;;;;13.02;100.00;99654.47;1801543;77;21962;-50
2022/10/30 05:52:58;;;;;;;1.47;0.70;;;;;;;13.00;100.00;99657.77;1797717;77;21817;-49
2022/10/30 05:55:26;;;;;;;1.72;0.78;;;;;;;12.98;100.00;99650.23;1806771;77;21533;-49
2022/10/30 05:58:02;;;;;;;2.02;1.10;;;;;;;12.99;100.00;99651.97;1794571;78;21534;-49
2022/10/30 06:00:31;;;;;;;2.30;0.55;;;;;;;13.01;100.00;99661.73;1805796;77;21028;-49
2022/10/30 06:03:02;;;;;;;3.27;0.70;;;;;;;13.03;100.00;99665.19;1810315;77;22984;-49
2022/10/30 06:05:32;;;;;;;2.20;0.85;;;;;;;13.08;100.00;99664.94;1809098;77;21342;-48
2022/10/30 06:08:00;;;;;;;1.52;0.60;;;;;;;13.11;100.00;99671.48;1805177;77;21018;-49
2022/10/30 06:10:27;;;;;;;2.65;0.60;;;;;;;13.11;100.00;99669.66;1804467;77;21047;-48
2022/10/30 06:13:09;;;;;;;2.55;0.60;;;;;;;13.10;100.00;99673.83;1805743;77;21008;-47
2022/10/30 06:15:41;;;;;;;1.17;0.68;;;;;;;13.10;100.00;99670.61;1805768;77;23272;-48
2022/10/30 06:18:09;;;;;;;3.37;0.70;;;;;;;13.10;100.00;99667.08;1808915;77;21063;-49
2022/10/30 06:20:41;;;;;;;1.47;0.60;;;;;;;13.10;100.00;99667.08;1808938;77;21457;-48
2022/10/30 06:23:28;;;;;;;5.00;0.60;;;;;;;13.08;100.00;99659.05;1802668;77;21039;-50
2022/10/30 06:25:56;;;;;;;1.15;0.60;;;;;;;13.09;100.00;99661.28;1809736;77;21058;-50
2022/10/30 06:28:25;;;;;;;0.82;0.60;;;;;;;13.09;100.00;99666.20;1804586;77;21865;-49
2022/10/30 06:30:54;;;;;;;2.30;0.55;;;;;;;13.09;100.00;99673.44;1806938;77;21029;-49
2022/10/30 06:33:21;;;;;;;1.70;0.60;;;;;;;13.11;100.00;99661.55;1801548;77;21041;-48
2022/10/30 06:35:49;;;;;;;4.37;0.80;;;;;;;13.12;100.00;99659.72;1810975;77;21400;-49
2022/10/30 06:38:17;;;;;;;3.58;1.25;;;;;;;13.14;100.00;99667.30;1765275;80;21086;-49
2022/10/30 06:40:48;;;;;;;5.75;1.02;;;;;;;13.15;100.00;99668.56;1730238;81;21989;-50
2022/10/30 06:43:25;;;;;;;2.58;0.62;;;;;;;13.15;100.00;99669.91;1729210;81;21084;-50
2022/10/30 06:45:57;;;;;;;3.25;0.70;;;;;;;13.14;100.00;99670.88;1799973;77;21008;-49
2022/10/30 06:48:23;;;;;;;2.67;0.70;;;;;;;13.14;100.00;99674.92;1801781;77;21072;-49
2022/10/30 06:50:56;;;;;;;5.35;0.60;;;;;;;13.13;100.00;99671.83;1798791;77;21043;-49
2022/10/30 06:53:24;;;;;;;1.80;0.70;;;;;;;13.12;100.00;99672.75;1802908;77;22619;-49
2022/10/30 06:56:00;;;;;;;2.65;0.60;;;;;;;13.12;100.00;99672.75;1806741;78;21034;-49
2022/10/30 06:58:37;;;;;;;2.42;0.50;;;;;;;13.12;100.00;99668.70;1802651;77;21094;-50
2022/10/30 07:01:05;;;;;;;2.98;0.60;;;;;;;13.14;100.00;99676.75;1808126;78;21027;-49
2022/10/30 07:03:34;;;;;;;4.15;0.70;;;;;;;13.14;100.00;99675.41;1810304;78;21630;-49
2022/10/30 07:06:01;;;;;;;2.55;0.60;;;;;;;13.15;100.00;99669.04;1813753;78;21956;-49
2022/10/30 07:08:28;;;;;;;1.60;0.50;;;;;;;13.17;100.00;99668.47;1813329;78;21098;-49
2022/10/30 07:10:57;;;;;;;2.22;0.60;;;;;;;13.20;100.00;99677.73;1808633;78;21016;-49
2022/10/30 07:13:24;;;;;;;2.25;0.57;;;;;;;13.21;100.00;99678.12;1806326;78;21066;-49
2022/10/30 07:15:58;;;;;;;1.95;0.60;;;;;;;13.18;100.00;99672.92;1802705;77;21039;-49
2022/10/30 07:18:26;;;;;;;1.15;0.30;;;;;;;13.18;100.00;99683.73;1801139;78;21787;-49
2022/10/30 07:20:57;;;;;;;1.35;0.40;;;;;;;13.13;100.00;99681.28;1803096;78;21037;-48
2022/10/30 07:23:24;;;;;;;2.27;0.47;;;;;;;13.11;100.00;99689.05;1807029;78;21479;-49
2022/10/30 07:25:53;;;;;;;2.05;0.50;;;;;;;13.10;100.00;99690.88;1807812;78;21584;-48
2022/10/30 07:28:24;;;;;;;2.22;0.40;;;;;;;13.07;100.00;99678.92;1801493;78;21081;-48
2022/10/30 07:31:08;;;;;;;0.78;0.40;;;;;;;13.07;100.00;99687.52;1804555;78;21890;-49
2022/10/30 07:33:50;;;;;;;1.47;0.40;;;;;;;13.05;100.00;99683.55;1808042;78;22172;-49
2022/10/30 07:36:19;;;;;;;1.92;0.55;;;;;;;13.03;100.00;99685.94;1799412;78;21043;-49
2022/10/30 07:38:51;;;;;;;2.25;0.35;;;;;;;13.01;100.00;99678.42;1797396;78;21058;-50
2022/10/30 07:41:19;;;;;;;1.05;0.40;;;;;;;12.98;100.00;99686.70;1801951;77;21027;-49
2022/10/30 07:43:48;;;;;;;3.08;0.50;;;;;;;12.94;100.00;99681.08;1802645;78;21762;-49
2022/10/30 07:46:34;;;;;;;1.07;0.40;;;;;;;12.90;100.00;116433.64;1809197;78;20974;-49
2022/10/30 13:22:47;;;;;;;1.40;0.40;;;;;;;13.29;100.00;99614.13;1853674;76;24302;-50
2022/10/30 13:25:42;;;;;;;0.60;0.30;;;;;;;13.20;100.00;99623.20;1816007;77;21032;-50
2022/10/30 13:28:35;;;;;;;4.83;1.80;;;;;;;13.17;100.00;99622.53;1776710;78;21847;-50
2022/10/30 13:31:34;;;;;;;5.03;2.55;;;;;;;13.13;100.00;99631.29;1756637;80;21021;-50
2022/10/30 13:34:42;;;;;;;12.80;11.43;;;;;;;13.13;100.00;99616.88;1755402;80;21077;-50
2022/10/30 13:37:34;;;;;;;7.72;4.55;;;;;;;13.11;100.00;99610.69;1752894;80;21395;-50
2022/10/30 13:40:14;;;;;;;6.25;4.03;;;;;;;13.08;100.00;99628.45;1756234;80;21092;-51
2022/10/30 13:42:56;;;;;;;3.12;0.60;;;;;;;13.07;100.00;99624.01;1756897;80;21801;-49
2022/10/30 13:45:58;;;;;;;1.90;0.70;;;;;;;13.07;100.00;99627.58;1757420;80;21099;-48
2022/10/30 13:48:51;;;;;;;2.42;0.50;;;;;;;13.06;100.00;99627.19;1750543;80;21788;-49
2022/10/30 13:51:40;;;;;;;2.27;0.40;;;;;;;13.05;100.00;99625.45;1754404;80;21041;-50
2022/10/30 13:54:29;;;;;;;1.77;0.60;;;;;;;13.02;100.00;99621.56;1753542;80;21081;-50
2022/10/30 13:56:57;;;;;;;1.90;0.40;;;;;;;13.01;100.00;99628.44;1765661;79;21824;-49
2022/10/30 13:59:50;;;;;;;3.85;0.50;;;;;;;12.99;100.00;99632.58;1746744;80;21106;-50
2022/10/30 14:02:46;;;;;;;2.05;0.80;;;;;;;12.97;100.00;99642.60;1742433;80;21082;-50
2022/10/30 14:05:48;;;;;;;2.77;0.50;;;;;;;12.95;100.00;99642.30;1738426;80;21091;-49
2022/10/30 14:08:53;;;;;;;2.35;0.40;;;;;;;12.94;100.00;99640.55;1738271;80;21095;-49
2022/10/30 14:11:21;;;;;;;1.60;0.40;;;;;;;12.93;100.00;99645.08;1744879;80;21187;-49
2022/10/30 14:13:57;;;;;;;1.92;0.70;;;;;;;12.88;100.00;99642.66;1746390;80;21107;-48
2022/10/30 14:16:44;;;;;;;3.33;0.45;;;;;;;12.85;100.00;99636.08;1742250;80;21091;-49
2022/10/30 14:19:15;;;;;;;0.90;0.40;;;;;;;12.83;100.00;99626.36;1742251;80;21036;-48
2022/10/30 14:21:52;;;;;;;2.20;0.40;;;;;;;12.80;100.00;99628.75;1735522;80;21055;-48
2022/10/30 14:24:31;;;;;;;0.88;0.40;;;;;;;12.78;100.00;99629.31;1741771;80;21920;-49
2022/10/30 14:27:09;;;;;;;3.85;0.40;;;;;;;12.75;100.00;99611.09;1746697;80;21040;-48
2022/10/30 14:29:48;;;;;;;1.90;0.50;;;;;;;12.73;100.00;99600.37;1753453;80;21103;-48
2022/10/30 14:32:20;;;;;;;1.67;0.40;;;;;;;12.71;100.00;99610.86;1735019;80;21091;-49
2022/10/30 14:34:55;;;;;;;2.72;0.62;;;;;;;12.67;100.00;99608.84;1740943;80;21060;-48
2022/10/30 14:37:28;;;;;;;2.02;0.50;;;;;;;12.62;100.00;99603.30;1732929;80;21777;-48
2022/10/30 14:39:57;;;;;;;1.77;0.50;;;;;;;12.60;100.00;99603.86;1740902;80;21079;-49
2022/10/30 14:42:43;;;;;;;7.22;0.50;;;;;;;12.58;100.00;99605.81;1711137;80;21051;-48
2022/10/30 14:45:24;;;;;;;1.60;0.50;;;;;;;12.54;100.00;99606.94;1730394;80;21272;-48
2022/10/30 14:48:17;;;;;;;2.08;0.50;;;;;;;12.50;100.00;99617.06;1748865;80;21464;-48
2022/10/30 14:50:59;;;;;;;1.62;0.45;;;;;;;12.48;100.00;99617.14;1730267;80;21820;-48
2022/10/30 14:53:53;;;;;;;2.17;0.80;;;;;;;12.47;100.00;99613.17;1733471;80;21104;-47
2022/10/30 14:56:43;;;;;;;1.57;0.57;;;;;;;12.48;100.00;99608.17;1752364;80;20978;-50
2022/10/30 14:59:18;;;;;;;0.98;0.50;;;;;;;12.50;100.00;99606.27;1742799;80;21597;-49
2022/10/30 15:02:00;;;;;;;1.45;0.60;;;;;;;12.54;100.00;99608.28;1749505;80;21587;-49
2022/10/30 15:04:55;;;;;;;1.67;0.70;;;;;;;12.56;100.00;99603.19;1720697;80;21763;-50
2022/10/30 15:07:42;;;;;;;1.30;0.65;;;;;;;12.55;100.00;99591.13;1738787;80;21607;-49
2022/10/30 15:10:31;;;;;;;1.45;0.60;;;;;;;12.46;100.00;99597.45;1752366;80;21005;-48
2022/10/30 15:13:14;;;;;;;2.15;0.60;;;;;;;12.46;100.00;99597.45;1740393;80;21240;-48
2022/10/30 15:15:40;;;;;;;2.30;0.62;;;;;;;12.44;100.00;99594.45;1735255;80;21067;-49
2022/10/30 15:18:14;;;;;;;4.50;0.60;;;;;;;12.39;100.00;99604.17;1742589;80;22180;-48
2022/10/30 15:20:42;;;;;;;1.55;0.70;;;;;;;12.34;100.00;99599.98;1737082;80;22316;-49
2022/10/30 15:23:29;;;;;;;2.83;0.85;;;;;;;12.26;100.00;99603.13;1742580;80;21130;-47
2022/10/30 15:26:02;;;;;;;4.15;1.75;;;;;;;12.24;100.00;99606.89;1737403;80;21494;-48
2022/10/30 15:28:32;;;;;;;5.72;2.25;;;;;;;12.19;100.00;99608.97;1754667;80;21086;-48
2022/10/30 15:31:08;;;;;;;5.05;1.00;;;;;;;12.14;100.00;99607.89;1742837;80;21833;-48
2022/10/30 15:33:36;;;;;;;3.52;0.90;;;;;;;12.08;100.00;99608.22;1740230;80;21064;-46
2022/10/30 15:36:05;;;;;;;2.37;1.00;;;;;;;12.06;100.00;99608.81;1744177;80;21031;-45
2022/10/30 15:38:33;;;;;;;5.10;0.70;;;;;;;12.02;100.00;99605.40;1739342;80;21031;-46
2022/10/30 15:41:01;;;;;;;4.08;0.70;;;;;;;11.98;100.00;99605.20;1739545;80;21055;-46
2022/10/30 15:43:31;;;;;;;1.35;0.53;;;;;;;11.90;100.00;99600.72;1746320;80;21841;-47
2022/10/30 15:45:58;;;;;;;3.12;0.70;;;;;;;11.90;100.00;99600.72;1749021;80;21578;-47
2022/10/30 15:48:30;;;;;;;2.05;0.78;;;;;;;11.92;100.00;99604.64;1740926;80;21028;-49
2022/10/30 15:51:07;;;;;;;3.40;0.90;;;;;;;11.92;100.00;99604.17;1744095;80;22309;-47
2022/10/30 15:53:47;;;;;;;2.35;0.98;;;;;;;11.95;100.00;99607.18;1741986;80;21110;-48
2022/10/30 15:56:34;;;;;;;2.00;0.80;;;;;;;11.94;100.00;99607.66;1745406;80;21825;-48
2022/10/30 15:59:06;;;;;;;4.03;0.80;;;;;;;11.93;100.00;99610.44;1734117;80;21100;-50
2022/10/30 16:01:37;;;;;;;2.77;0.82;;;;;;;11.88;100.00;99606.66;1741441;80;21483;-49
2022/10/30 16:04:19;;;;;;;2.00;0.70;;;;;;;11.84;100.00;99596.98;1716188;80;21080;-48
2022/10/30 16:06:54;;;;;;;4.20;0.70;;;;;;;11.79;100.00;99604.48;1717933;81;21062;-48
2022/10/30 16:09:20;;;;;;;5.28;0.90;;;;;;;11.72;100.00;99603.92;1739221;80;21271;-48
2022/10/30 16:11:48;;;;;;;3.75;0.88;;;;;;;11.69;100.00;99605.42;1739887;80;21651;-50
2022/10/30 16:14:24;;;;;;;1.98;1.02;;;;;;;11.66;100.00;99604.23;1734454;80;21050;-48
2022/10/30 16:16:51;;;;;;;3.22;0.90;;;;;;;11.64;100.00;99604.81;1735449;80;21540;-48
2022/10/30 16:19:29;;;;;;;2.55;0.90;;;;;;;11.61;100.00;99604.10;1736889;80;21078;-46
2022/10/30 16:21:56;;;;;;;2.85;1.05;;;;;;;11.60;100.00;99613.14;1740916;79;21820;-50
2022/10/30 16:24:33;;;;;;;2.65;1.07;;;;;;;11.59;100.00;99607.34;1749555;79;21589;-47
2022/10/30 16:27:06;;;;;;;1.77;0.80;;;;;;;11.58;100.00;99602.44;1743155;79;21024;-50
2022/10/30 16:29:33;;;;;;;4.50;0.98;;;;;;;11.60;100.00;99595.62;1749523;79;21084;-46
2022/10/30 16:31:59;;;;;;;5.20;1.22;;;;;;;11.61;100.00;99591.97;1726681;79;21082;-48
2022/10/30 16:34:30;;;;;;;2.10;0.88;;;;;;;11.61;100.00;99593.32;1759746;79;21813;-46
2022/10/30 16:36:57;;;;;;;1.12;0.60;;;;;;;11.58;100.00;99591.66;1757279;79;21483;-47
2022/10/30 16:39:24;;;;;;;1.65;0.60;;;;;;;11.54;100.00;99587.40;1756472;79;21075;-47
2022/10/30 16:41:50;;;;;;;4.08;0.60;;;;;;;11.49;100.00;99581.84;1760022;79;21841;-48
2022/10/30 16:44:31;;;;;;;2.37;0.60;;;;;;;11.42;100.00;116433.64;1757732;79;21562;-48
